createdAt,value
2022-07-25T00:00:27.477Z,4.68
2022-07-25T00:02:54.763Z,4.60
2022-07-25T00:05:22.301Z,4.60
2022-07-25T00:07:50.194Z,4.95
2022-07-25T00:10:17.573Z,5.50
2022-07-25T00:12:45.003Z,6.13
2022-07-25T00:15:12.789Z,5.07
2022-07-25T00:17:40.140Z,6.13
2022-07-25T00:20:08.011Z,4.85
2022-07-25T00:22:35.471Z,5.47
2022-07-25T00:25:02.741Z,5.63
2022-07-25T00:27:30.159Z,5.60
2022-07-25T00:29:57.642Z,5.40
2022-07-25T00:32:25.002Z,6.22
2022-07-25T00:34:52.359Z,6.32
2022-07-25T00:37:19.626Z,5.25
2022-07-25T00:39:46.966Z,5.63
2022-07-25T00:42:14.250Z,5.88
2022-07-25T00:44:41.611Z,6.30
2022-07-25T00:47:08.887Z,5.63
2022-07-25T00:49:36.193Z,5.95
2022-07-25T00:52:03.656Z,5.90
2022-07-25T00:54:30.969Z,5.72
2022-07-25T00:56:58.324Z,5.70
2022-07-25T00:59:25.570Z,6.25
2022-07-25T01:01:52.959Z,6.82
2022-07-25T01:04:20.681Z,6.82
2022-07-25T01:06:48.022Z,6.68
2022-07-25T01:09:15.442Z,6.75
2022-07-25T01:11:42.890Z,7.40
2022-07-25T01:14:10.255Z,6.70
2022-07-25T01:16:37.711Z,6.75
2022-07-25T01:19:05.115Z,7.45
2022-07-25T01:21:32.384Z,6.95
2022-07-25T01:23:59.694Z,6.57
2022-07-25T01:26:27.025Z,7.10
2022-07-25T01:28:54.964Z,6.47
2022-07-25T01:31:22.315Z,7.03
2022-07-25T01:33:49.669Z,7.30
2022-07-25T01:36:16.974Z,7.22
2022-07-25T01:38:44.283Z,7.97
2022-07-25T01:41:11.647Z,8.05
2022-07-25T01:43:49.819Z,7.32
2022-07-25T01:46:17.152Z,7.30
2022-07-25T01:48:44.593Z,8.05
2022-07-25T01:51:11.992Z,8.50
2022-07-25T01:53:39.270Z,7.90
2022-07-25T01:56:08.287Z,7.60
2022-07-25T01:58:37.413Z,7.68
2022-07-25T02:01:04.973Z,7.97
2022-07-25T02:03:32.518Z,7.45
2022-07-25T02:06:04.361Z,9.45
2022-07-25T02:08:31.972Z,8.82
2022-07-25T02:11:00.501Z,8.93
2022-07-25T02:13:27.855Z,8.43
2022-07-25T02:15:55.226Z,9.30
2022-07-25T02:18:22.614Z,8.00
2022-07-25T02:20:49.881Z,9.50
2022-07-25T02:23:17.209Z,7.80
2022-07-25T02:25:44.550Z,8.43
2022-07-25T02:28:11.849Z,8.60
2022-07-25T02:30:39.447Z,7.57
2022-07-25T02:33:06.759Z,7.43
2022-07-25T02:35:34.075Z,7.88
2022-07-25T02:38:01.481Z,8.48
2022-07-25T02:40:28.848Z,9.38
2022-07-25T02:42:56.116Z,8.05
2022-07-25T02:45:23.452Z,8.13
2022-07-25T02:47:50.902Z,8.30
2022-07-25T02:50:18.248Z,8.00
2022-07-25T02:52:45.538Z,8.27
2022-07-25T02:55:12.945Z,7.93
2022-07-25T02:57:40.211Z,8.43
2022-07-25T03:00:08.148Z,7.63
2022-07-25T03:02:35.517Z,9.20
2022-07-25T03:05:04.172Z,8.70
2022-07-25T03:07:31.408Z,8.20
2022-07-25T03:09:58.671Z,8.02
2022-07-25T03:12:25.991Z,9.43
2022-07-25T03:14:53.283Z,8.98
2022-07-25T03:17:20.558Z,9.98
2022-07-25T03:19:47.837Z,9.65
2022-07-25T03:22:15.086Z,8.80
2022-07-25T03:24:42.373Z,9.82
2022-07-25T03:27:09.775Z,9.27
2022-07-25T03:29:37.042Z,9.05
2022-07-25T03:32:04.747Z,8.73
2022-07-25T03:34:32.168Z,9.27
2022-07-25T03:37:00.323Z,9.50
2022-07-25T03:39:28.307Z,8.98
2022-07-25T03:41:55.945Z,9.32
2022-07-25T03:44:24.049Z,9.38
2022-07-25T03:46:51.413Z,9.38
2022-07-25T03:49:18.918Z,9.95
2022-07-25T03:51:46.327Z,11.23
2022-07-25T03:54:13.800Z,10.73
2022-07-25T03:56:43.606Z,10.27
2022-07-25T03:59:12.598Z,10.63
2022-07-25T04:01:40.112Z,10.90
2022-07-25T04:04:07.972Z,9.52
2022-07-25T04:06:35.635Z,10.15
2022-07-25T04:09:03.206Z,10.90
2022-07-25T04:11:31.023Z,11.13
2022-07-25T04:13:58.815Z,11.32
2022-07-25T04:16:27.799Z,11.07
2022-07-25T04:18:56.267Z,11.40
2022-07-25T04:21:24.847Z,11.55
2022-07-25T04:23:52.458Z,11.50
2022-07-25T04:26:19.850Z,11.55
2022-07-25T04:28:47.213Z,10.52
2022-07-25T04:31:15.037Z,11.73
2022-07-25T04:33:43.005Z,11.00
2022-07-25T04:36:10.415Z,10.75
2022-07-25T04:38:37.664Z,11.38
2022-07-25T04:41:05.414Z,10.63
2022-07-25T04:43:32.656Z,11.07
2022-07-25T04:46:00.059Z,11.43
2022-07-25T04:48:27.777Z,11.35
2022-07-25T04:50:55.094Z,11.23
2022-07-25T04:53:22.378Z,10.68
2022-07-25T04:55:49.771Z,10.38
2022-07-25T04:58:17.106Z,10.57
2022-07-25T05:00:44.642Z,9.93
2022-07-25T05:03:12.106Z,10.68
2022-07-25T05:05:39.472Z,9.63
2022-07-25T05:08:06.703Z,10.10
2022-07-25T05:10:33.991Z,9.55
2022-07-25T05:13:01.285Z,10.15
2022-07-25T05:15:28.584Z,10.23
2022-07-25T05:17:55.879Z,9.70
2022-07-25T05:20:23.235Z,10.10
2022-07-25T05:22:50.621Z,10.07
2022-07-25T05:25:17.955Z,9.70
2022-07-25T05:27:45.305Z,10.50
2022-07-25T05:30:13.190Z,10.23
2022-07-25T05:32:40.574Z,10.65
2022-07-25T05:35:08.585Z,10.85
2022-07-25T05:37:37.496Z,10.43
2022-07-25T05:40:05.763Z,10.95
2022-07-25T05:42:33.081Z,10.18
2022-07-25T05:45:00.737Z,10.52
2022-07-25T05:47:28.109Z,10.40
2022-07-25T05:49:55.473Z,10.80
2022-07-25T05:52:22.901Z,11.35
2022-07-25T05:54:50.737Z,10.07
2022-07-25T05:57:18.023Z,9.80
2022-07-25T05:59:45.336Z,10.35
2022-07-25T06:02:12.805Z,10.25
2022-07-25T06:04:40.185Z,10.38
2022-07-25T06:07:07.459Z,10.10
2022-07-25T06:09:35.746Z,10.13
2022-07-25T06:12:03.050Z,9.38
2022-07-25T06:14:31.580Z,10.25
2022-07-25T06:16:58.882Z,10.15
2022-07-25T06:19:26.269Z,10.15
2022-07-25T06:21:53.533Z,10.07
2022-07-25T06:24:20.823Z,10.35
2022-07-25T06:26:48.134Z,9.93
2022-07-25T06:29:15.458Z,9.93
2022-07-25T06:31:42.884Z,9.60
2022-07-25T06:34:14.616Z,9.50
2022-07-25T06:36:41.919Z,10.27
2022-07-25T06:39:09.348Z,10.00
2022-07-25T06:41:37.678Z,9.80
2022-07-25T06:44:05.305Z,9.05
2022-07-25T06:46:33.070Z,8.93
2022-07-25T06:49:00.498Z,8.75
2022-07-25T06:51:27.849Z,8.75
2022-07-25T06:53:55.242Z,8.48
2022-07-25T06:56:22.536Z,7.75
2022-07-25T06:58:50.030Z,7.43
2022-07-25T07:01:17.336Z,8.07
2022-07-25T07:03:44.895Z,6.88
2022-07-25T07:06:12.218Z,7.85
2022-07-25T07:08:39.551Z,6.80
2022-07-25T07:11:07.728Z,6.82
2022-07-25T07:13:35.492Z,6.53
2022-07-25T07:16:03.655Z,5.78
2022-07-25T07:18:31.120Z,5.95
2022-07-25T07:20:58.370Z,5.03
2022-07-25T07:23:25.652Z,4.35
2022-07-25T07:25:56.792Z,4.30
2022-07-25T07:28:24.241Z,4.63
2022-07-25T07:31:15.281Z,3.60
2022-07-25T07:33:38.887Z,3.78
2022-07-25T07:36:06.268Z,3.33
2022-07-25T07:38:33.537Z,3.30
2022-07-25T07:41:00.827Z,2.70
2022-07-25T07:43:30.488Z,3.10
2022-07-25T07:46:01.472Z,3.03
2022-07-25T07:48:32.759Z,2.88
2022-07-25T07:51:00.867Z,2.33
2022-07-25T07:53:46.756Z,2.28
2022-07-25T07:56:14.491Z,1.73
2022-07-25T07:58:41.757Z,1.77
2022-07-25T08:01:09.095Z,2.47
2022-07-25T08:03:36.357Z,2.58
2022-07-25T08:06:03.805Z,2.10
2022-07-25T08:08:32.297Z,1.70
2022-07-25T08:11:00.011Z,1.80
2022-07-25T08:13:30.308Z,1.70
2022-07-25T08:15:59.383Z,1.65
2022-07-25T08:18:27.290Z,1.90
2022-07-25T08:20:54.673Z,1.58
2022-07-25T08:23:22.572Z,1.48
2022-07-25T08:25:50.001Z,1.40
2022-07-25T08:28:17.293Z,1.50
2022-07-25T08:30:44.626Z,1.30
2022-07-25T08:33:13.548Z,1.30
2022-07-25T08:35:42.033Z,1.42
2022-07-25T08:38:11.676Z,0.98
2022-07-25T08:40:39.293Z,1.33
2022-07-25T08:43:06.686Z,1.80
2022-07-25T08:45:34.456Z,1.13
2022-07-25T08:48:01.724Z,1.33
2022-07-25T08:50:30.208Z,1.40
2022-07-25T08:53:23.058Z,1.13
2022-07-25T08:55:45.852Z,1.13
2022-07-25T08:58:14.345Z,1.35
2022-07-25T09:00:42.183Z,1.73
2022-07-25T09:03:11.050Z,1.70
2022-07-25T09:05:38.685Z,1.20
2022-07-25T09:08:17.517Z,1.55
2022-07-25T09:10:51.886Z,2.45
2022-07-25T09:13:19.786Z,1.40
2022-07-25T09:15:51.724Z,1.42
2022-07-25T09:18:23.679Z,1.17
2022-07-25T09:20:53.282Z,1.27
2022-07-25T09:23:36.012Z,1.48
2022-07-25T09:26:03.620Z,1.40
2022-07-25T09:28:30.991Z,1.58
2022-07-25T09:30:59.589Z,1.48
2022-07-25T09:33:28.262Z,1.50
2022-07-25T09:35:56.255Z,1.45
2022-07-25T09:38:24.187Z,2.13
2022-07-25T09:41:09.590Z,1.60
2022-07-25T09:43:37.765Z,1.52
2022-07-25T09:46:05.776Z,1.27
2022-07-25T09:48:33.386Z,1.55
2022-07-25T09:51:01.094Z,1.30
2022-07-25T09:53:29.364Z,1.90
2022-07-25T09:55:57.541Z,1.48
2022-07-25T09:58:25.436Z,1.38
2022-07-25T10:00:54.806Z,2.38
2022-07-25T10:03:30.374Z,1.70
2022-07-25T10:06:04.760Z,1.35
2022-07-25T10:08:36.342Z,1.92
2022-07-25T10:11:05.289Z,1.90
2022-07-25T10:13:34.744Z,1.73
2022-07-25T10:16:02.568Z,1.70
2022-07-25T10:18:30.993Z,2.22
2022-07-25T10:21:28.689Z,2.28
2022-07-25T10:23:59.332Z,2.10
2022-07-25T10:26:26.676Z,2.38
2022-07-25T10:28:55.934Z,2.05
2022-07-25T10:31:23.338Z,2.17
2022-07-25T10:34:11.074Z,2.40
2022-07-25T10:36:49.483Z,2.08
2022-07-25T10:39:17.275Z,1.95
2022-07-25T10:41:45.523Z,2.40
2022-07-25T10:44:14.311Z,2.53
2022-07-25T10:46:44.629Z,1.88
2022-07-25T10:49:19.750Z,2.00
2022-07-25T10:52:17.478Z,2.53
2022-07-25T10:55:02.906Z,2.50
2022-07-25T10:57:32.159Z,2.40
2022-07-25T11:00:06.581Z,2.15
2022-07-25T11:02:33.951Z,2.13
2022-07-25T11:05:05.148Z,2.50
2022-07-25T11:07:38.383Z,2.30
2022-07-25T11:10:06.253Z,1.90
2022-07-25T11:12:33.640Z,2.30
2022-07-25T11:15:02.117Z,2.30
2022-07-25T11:17:29.853Z,1.90
2022-07-25T11:19:57.173Z,2.00
2022-07-25T11:22:25.276Z,2.55
2022-07-25T11:24:52.698Z,1.80
2022-07-25T11:27:25.573Z,1.92
2022-07-25T11:29:52.888Z,2.03
2022-07-25T11:32:20.445Z,1.95
2022-07-25T11:34:49.189Z,1.98
2022-07-25T11:37:18.778Z,2.10
2022-07-25T11:39:47.056Z,2.75
2022-07-25T11:42:16.473Z,2.38
2022-07-25T11:44:48.906Z,2.10
2022-07-25T11:47:25.418Z,2.38
2022-07-25T11:49:53.081Z,2.47
2022-07-25T11:52:24.816Z,2.58
2022-07-25T11:54:56.035Z,2.42
2022-07-25T11:57:27.694Z,2.25
2022-07-25T11:59:55.439Z,2.55
2022-07-25T12:02:27.334Z,3.22
2022-07-25T12:04:59.615Z,2.50
2022-07-25T12:07:42.251Z,2.53
2022-07-25T12:10:14.229Z,2.63
2022-07-25T12:12:42.387Z,2.80
2022-07-25T12:15:16.975Z,2.80
2022-07-25T12:17:44.382Z,2.17
2022-07-25T12:20:14.506Z,2.35
2022-07-25T12:22:41.883Z,2.13
2022-07-25T12:25:09.502Z,2.03
2022-07-25T12:27:36.873Z,2.17
2022-07-25T12:30:05.077Z,2.40
2022-07-25T12:32:32.608Z,2.20
2022-07-25T12:35:00.394Z,2.28
2022-07-25T12:37:27.710Z,2.42
2022-07-25T12:39:55.593Z,2.42
2022-07-25T12:42:22.853Z,2.55
2022-07-25T12:44:50.146Z,2.90
2022-07-25T12:47:17.498Z,2.47
2022-07-25T12:49:44.811Z,2.47
2022-07-25T12:52:12.257Z,2.63
2022-07-25T12:54:39.557Z,3.15
2022-07-25T12:57:06.903Z,3.33
2022-07-25T12:59:34.221Z,3.22
2022-07-25T13:02:01.694Z,2.50
2022-07-25T13:04:29.210Z,2.28
2022-07-25T13:06:56.978Z,2.72
2022-07-25T13:09:24.620Z,1.90
2022-07-25T13:11:52.306Z,1.83
2022-07-25T13:14:19.882Z,1.88
2022-07-25T13:16:48.054Z,1.90
2022-07-25T13:19:15.881Z,1.85
2022-07-25T13:21:43.563Z,1.70
2022-07-25T13:24:11.430Z,2.15
2022-07-25T13:26:39.387Z,1.90
2022-07-25T13:29:09.555Z,2.83
2022-07-25T13:31:37.728Z,2.10
2022-07-25T13:34:05.212Z,1.90
2022-07-25T13:36:33.522Z,2.50
2022-07-25T13:39:01.182Z,2.25
2022-07-25T13:41:28.657Z,1.73
2022-07-25T13:43:56.265Z,1.88
2022-07-25T13:46:24.030Z,2.47
2022-07-25T13:48:51.509Z,2.25
2022-07-25T13:51:18.895Z,2.35
2022-07-25T13:53:46.232Z,2.90
2022-07-25T13:56:13.737Z,2.67
2022-07-25T13:58:41.536Z,3.55
2022-07-25T14:01:09.666Z,2.58
2022-07-25T14:03:37.054Z,3.25
2022-07-25T14:06:11.151Z,2.90
2022-07-25T14:08:43.381Z,2.13
2022-07-25T14:11:10.783Z,2.30
2022-07-25T14:13:38.134Z,2.10
2022-07-25T14:16:05.630Z,2.03
2022-07-25T14:18:33.006Z,2.83
2022-07-25T14:21:00.376Z,1.63
2022-07-25T14:23:30.093Z,2.55
2022-07-25T14:25:58.612Z,2.22
2022-07-25T14:28:26.247Z,2.50
2022-07-25T14:30:53.581Z,1.63
2022-07-25T14:33:20.879Z,1.90
2022-07-25T14:35:48.156Z,2.15
2022-07-25T14:38:15.467Z,1.95
2022-07-25T14:40:43.178Z,2.40
2022-07-25T14:43:10.509Z,2.45
2022-07-25T14:45:37.901Z,1.98
2022-07-25T14:48:08.269Z,1.95
2022-07-25T14:50:35.574Z,1.55
2022-07-25T14:53:02.860Z,2.42
2022-07-25T14:55:30.171Z,1.38
2022-07-25T14:58:02.311Z,1.48
2022-07-25T15:00:30.018Z,1.15
2022-07-25T15:02:57.561Z,0.90
2022-07-25T15:05:24.830Z,1.10
2022-07-25T15:07:52.173Z,1.20
2022-07-25T15:10:19.516Z,1.02
2022-07-25T15:12:46.774Z,1.15
2022-07-25T15:15:14.047Z,1.17
2022-07-25T15:17:41.379Z,1.08
2022-07-25T15:20:09.069Z,0.95
2022-07-25T15:22:36.502Z,1.13
2022-07-25T15:27:52.990Z,1.45
2022-07-25T15:30:20.903Z,1.10
2022-07-25T15:32:50.052Z,0.98
2022-07-25T15:35:17.408Z,1.40
2022-07-25T15:37:44.816Z,1.10
2022-07-25T15:40:12.600Z,1.15
2022-07-25T15:42:40.153Z,1.17
2022-07-25T15:47:56.597Z,1.30
2022-07-25T15:50:24.138Z,1.58
2022-07-25T15:52:51.614Z,1.00
2022-07-25T15:55:18.898Z,1.20
2022-07-25T15:57:46.167Z,1.27
2022-07-25T16:00:13.776Z,1.13
2022-07-25T16:02:41.141Z,1.27
2022-07-25T16:05:08.571Z,1.55
2022-07-25T16:07:35.907Z,1.13
2022-07-25T16:10:03.217Z,1.20
2022-07-25T16:12:30.586Z,1.30
2022-07-25T16:14:57.894Z,0.90
2022-07-25T16:17:28.105Z,1.40
2022-07-25T16:19:56.005Z,1.90
2022-07-25T16:22:23.305Z,0.93
2022-07-25T16:24:50.970Z,0.93
2022-07-25T16:27:18.367Z,1.50
2022-07-25T16:29:45.718Z,1.42
2022-07-25T16:32:13.057Z,1.00
2022-07-25T16:34:40.453Z,1.00
2022-07-25T16:37:07.778Z,1.23
2022-07-25T16:39:35.031Z,1.27
2022-07-25T16:42:02.306Z,1.10
2022-07-25T16:44:29.582Z,1.17
2022-07-25T16:46:56.996Z,1.00
2022-07-25T16:49:24.426Z,1.05
2022-07-25T16:51:52.753Z,1.45
2022-07-25T16:54:23.840Z,1.30
2022-07-25T16:56:53.739Z,1.33
2022-07-25T16:59:22.907Z,1.05
2022-07-25T17:01:50.273Z,1.50
2022-07-25T17:04:17.811Z,1.30
2022-07-25T17:06:45.281Z,1.58
2022-07-25T17:09:12.538Z,1.30
2022-07-25T17:11:39.793Z,1.33
2022-07-25T17:14:07.085Z,1.17
2022-07-25T17:16:34.454Z,1.63
2022-07-25T17:19:02.588Z,2.05
2022-07-25T17:21:29.909Z,1.30
2022-07-25T17:23:57.207Z,1.33
2022-07-25T17:26:24.475Z,1.20
2022-07-25T17:28:52.141Z,1.27
2022-07-25T17:31:19.493Z,1.48
2022-07-25T17:33:46.840Z,1.77
2022-07-25T17:36:14.348Z,1.63
2022-07-25T17:38:42.057Z,1.45
2022-07-25T17:41:09.410Z,1.30
2022-07-25T17:43:36.959Z,1.50
2022-07-25T17:46:04.245Z,1.75
2022-07-25T17:48:31.697Z,1.88
2022-07-25T17:50:59.063Z,1.90
2022-07-25T17:53:26.399Z,1.75
2022-07-25T17:55:53.648Z,2.55
2022-07-25T17:58:20.945Z,2.20
2022-07-25T18:00:48.777Z,1.70
2022-07-25T18:03:16.352Z,2.58
2022-07-25T18:05:44.287Z,2.03
2022-07-25T18:08:11.609Z,1.98
2022-07-25T18:10:38.902Z,2.05
2022-07-25T18:13:06.262Z,1.67
2022-07-25T18:15:33.682Z,1.60
2022-07-25T18:18:01.049Z,1.58
2022-07-25T18:20:28.460Z,1.55
2022-07-25T18:22:55.761Z,1.88
2022-07-25T18:25:23.046Z,1.75
2022-07-25T18:27:50.748Z,2.10
2022-07-25T18:30:18.166Z,1.55
2022-07-25T18:32:45.877Z,1.98
2022-07-25T18:35:13.782Z,1.52
2022-07-25T18:37:41.132Z,1.25
2022-07-25T18:40:08.848Z,1.58
2022-07-25T18:42:36.258Z,1.10
2022-07-25T18:45:04.114Z,1.38
2022-07-25T18:47:34.817Z,1.30
2022-07-25T18:50:02.436Z,1.30
2022-07-25T18:52:34.708Z,1.45
2022-07-25T18:55:03.044Z,1.30
2022-07-25T18:57:30.441Z,1.20
2022-07-25T19:00:02.602Z,1.10
2022-07-25T19:02:30.673Z,1.00
2022-07-25T19:04:58.125Z,1.42
2022-07-25T19:07:26.062Z,1.23
2022-07-25T19:09:53.321Z,1.27
2022-07-25T19:12:20.607Z,1.35
2022-07-25T19:14:47.919Z,1.30
2022-07-25T19:17:15.204Z,1.10
2022-07-25T19:19:42.578Z,1.33
2022-07-25T19:22:09.943Z,1.65
2022-07-25T19:24:37.209Z,1.45
2022-07-25T19:27:05.193Z,1.10
2022-07-25T19:29:32.495Z,1.55
2022-07-25T19:31:59.860Z,1.88
2022-07-25T19:34:27.140Z,2.35
2022-07-25T19:36:55.697Z,1.80
2022-07-25T19:39:24.643Z,1.98
2022-07-25T19:41:55.043Z,1.65
2022-07-25T19:44:22.352Z,1.50
2022-07-25T19:46:49.716Z,2.05
2022-07-25T19:49:17.225Z,2.10
2022-07-25T19:51:44.624Z,1.90
2022-07-25T19:54:12.177Z,1.77
2022-07-25T19:56:39.529Z,1.88
2022-07-25T19:59:06.803Z,2.65
2022-07-25T20:01:39.303Z,2.00
2022-07-25T20:04:09.047Z,1.98
2022-07-25T20:06:36.867Z,1.80
2022-07-25T20:09:04.506Z,1.50
2022-07-25T20:11:32.210Z,1.77
2022-07-25T20:13:59.515Z,2.35
2022-07-25T20:16:26.866Z,1.42
2022-07-25T20:18:54.184Z,2.47
2022-07-25T20:21:21.512Z,2.22
2022-07-25T20:23:49.024Z,2.17
2022-07-25T20:26:16.294Z,2.03
2022-07-25T20:28:43.826Z,2.30
2022-07-25T20:31:11.191Z,2.08
2022-07-25T20:33:38.567Z,2.67
2022-07-25T20:36:06.190Z,1.77
2022-07-25T20:38:33.686Z,2.28
2022-07-25T20:41:01.230Z,2.40
2022-07-25T20:43:28.889Z,2.60
2022-07-25T20:45:56.377Z,2.30
2022-07-25T20:48:24.151Z,2.97
2022-07-25T20:50:51.461Z,2.38
2022-07-25T20:53:19.769Z,2.95
2022-07-25T20:55:47.020Z,2.88
2022-07-25T20:58:14.242Z,2.47
2022-07-25T21:00:41.720Z,3.28
2022-07-25T21:03:09.093Z,2.90
2022-07-25T21:05:37.811Z,2.70
2022-07-25T21:08:05.777Z,2.95
2022-07-25T21:10:33.173Z,2.92
2022-07-25T21:13:00.432Z,2.58
2022-07-25T21:15:27.686Z,2.63
2022-07-25T21:17:54.982Z,2.50
2022-07-25T21:20:22.385Z,2.72
2022-07-25T21:22:49.787Z,2.95
2022-07-25T21:25:17.125Z,3.00
2022-07-25T21:27:44.510Z,3.33
2022-07-25T21:30:11.960Z,3.10
2022-07-25T21:32:40.539Z,3.42
2022-07-25T21:35:08.063Z,3.08
2022-07-25T21:37:35.371Z,2.33
2022-07-25T21:40:02.840Z,2.88
2022-07-25T21:42:30.317Z,2.63
2022-07-25T21:44:57.666Z,2.80
2022-07-25T21:47:25.144Z,2.70
2022-07-25T21:50:11.010Z,3.42
2022-07-25T21:52:40.738Z,2.90
2022-07-25T21:55:08.541Z,3.05
2022-07-25T21:57:35.812Z,3.65
2022-07-25T22:00:03.207Z,3.20
2022-07-25T22:02:43.329Z,3.05
2022-07-25T22:05:11.115Z,3.05
2022-07-25T22:07:39.239Z,3.58
2022-07-25T22:10:07.808Z,3.35
2022-07-25T22:12:35.089Z,2.90
2022-07-25T22:15:02.410Z,2.55
2022-07-25T22:17:48.525Z,3.35
2022-07-25T22:20:16.901Z,2.75
2022-07-25T22:22:44.182Z,3.80
2022-07-25T22:25:11.514Z,3.05
2022-07-25T22:27:38.888Z,2.95
2022-07-25T22:30:06.606Z,3.92
2022-07-25T22:32:33.888Z,3.38
2022-07-25T22:35:01.244Z,3.50
2022-07-25T22:37:32.814Z,3.97
2022-07-25T22:40:01.361Z,3.88
2022-07-25T22:42:28.939Z,3.97
2022-07-25T22:44:56.249Z,3.08
2022-07-25T22:47:23.499Z,3.65
2022-07-25T22:49:50.767Z,4.25
2022-07-25T22:52:18.018Z,5.05
2022-07-25T22:54:45.448Z,3.33
2022-07-25T22:57:12.748Z,3.38
2022-07-25T22:59:40.305Z,3.25
2022-07-25T23:02:07.616Z,3.85
2022-07-25T23:04:35.043Z,3.58
2022-07-25T23:07:02.453Z,4.45
2022-07-25T23:09:33.737Z,4.03
2022-07-25T23:12:04.438Z,3.47
2022-07-25T23:14:31.767Z,3.67
2022-07-25T23:17:17.282Z,4.30
2022-07-25T23:19:45.057Z,3.13
2022-07-25T23:22:12.614Z,3.42
2022-07-25T23:24:39.912Z,3.50
2022-07-25T23:27:07.527Z,3.47
2022-07-25T23:29:34.906Z,3.90
2022-07-25T23:32:02.329Z,3.42
2022-07-25T23:34:29.756Z,4.80
2022-07-25T23:36:57.248Z,4.45
2022-07-25T23:39:24.609Z,4.13
2022-07-25T23:41:52.033Z,3.78
2022-07-25T23:44:19.382Z,3.95
2022-07-25T23:46:47.137Z,3.85
2022-07-25T23:49:14.672Z,3.88
2022-07-25T23:51:42.122Z,3.60
2022-07-25T23:54:09.496Z,3.97
2022-07-25T23:56:36.859Z,3.22
2022-07-25T23:59:04.436Z,4.05
